sensor_id;sensor_type;location;lat;lon;timestamp;P1;durP1;ratioP1;P2;durP2;ratioP2
68377;SDS011;55322;48.146;11.516;2023-03-15T00:01:24;4.50;;;0.60;;
68377;SDS011;55322;48.146;11.516;2023-03-15T00:03:51;5.47;;;0.57;;
68377;SDS011;55322;48.146;11.516;2023-03-15T00:06:18;5.43;;;0.60;;
68377;SDS011;55322;48.146;11.516;2023-03-15T00:08:44;5.13;;;0.70;;
68377;SDS011;55322;48.146;11.516;2023-03-15T00:11:11;4.17;;;0.70;;
68377;SDS011;55322;48.146;11.516;2023-03-15T00:13:37;4.90;;;0.68;;
68377;SDS011;55322;48.146;11.516;2023-03-15T00:16:02;3.80;;;0.80;;
68377;SDS011;55322;48.146;11.516;2023-03-15T00:18:28;4.40;;;0.60;;
68377;SDS011;55322;48.146;11.516;2023-03-15T00:20:54;4.53;;;0.70;;
68377;SDS011;55322;48.146;11.516;2023-03-15T00:23:19;4.03;;;0.50;;
68377;SDS011;55322;48.146;11.516;2023-03-15T00:25:46;5.33;;;0.70;;
68377;SDS011;55322;48.146;11.516;2023-03-15T00:28:12;5.13;;;0.65;;
68377;SDS011;55322;48.146;11.516;2023-03-15T00:30:38;3.00;;;0.50;;
68377;SDS011;55322;48.146;11.516;2023-03-15T00:33:03;7.13;;;0.90;;
68377;SDS011;55322;48.146;11.516;2023-03-15T00:35:30;4.47;;;0.65;;
68377;SDS011;55322;48.146;11.516;2023-03-15T00:37:56;4.80;;;1.02;;
68377;SDS011;55322;48.146;11.516;2023-03-15T00:40:21;6.43;;;0.90;;
68377;SDS011;55322;48.146;11.516;2023-03-15T00:42:48;4.22;;;0.80;;
68377;SDS011;55322;48.146;11.516;2023-03-15T00:45:16;5.47;;;0.70;;
68377;SDS011;55322;48.146;11.516;2023-03-15T00:47:43;5.22;;;0.88;;
68377;SDS011;55322;48.146;11.516;2023-03-15T00:50:09;5.28;;;0.77;;
68377;SDS011;55322;48.146;11.516;2023-03-15T00:52:35;4.60;;;0.70;;
68377;SDS011;55322;48.146;11.516;2023-03-15T00:55:01;5.45;;;0.77;;
68377;SDS011;55322;48.146;11.516;2023-03-15T00:57:27;3.88;;;0.50;;
68377;SDS011;55322;48.146;11.516;2023-03-15T00:59:52;3.20;;;0.50;;
68377;SDS011;55322;48.146;11.516;2023-03-15T01:02:18;3.47;;;0.57;;
68377;SDS011;55322;48.146;11.516;2023-03-15T01:04:46;3.05;;;0.60;;
68377;SDS011;55322;48.146;11.516;2023-03-15T01:07:12;2.28;;;0.30;;
68377;SDS011;55322;48.146;11.516;2023-03-15T01:09:37;3.17;;;0.40;;
68377;SDS011;55322;48.146;11.516;2023-03-15T01:12:03;2.70;;;0.37;;
68377;SDS011;55322;48.146;11.516;2023-03-15T01:14:28;2.60;;;0.40;;
68377;SDS011;55322;48.146;11.516;2023-03-15T01:16:54;2.93;;;0.50;;
68377;SDS011;55322;48.146;11.516;2023-03-15T01:19:19;3.07;;;0.30;;
68377;SDS011;55322;48.146;11.516;2023-03-15T01:21:44;2.67;;;0.40;;
68377;SDS011;55322;48.146;11.516;2023-03-15T01:24:12;3.05;;;0.45;;
68377;SDS011;55322;48.146;11.516;2023-03-15T01:26:38;2.95;;;0.40;;
68377;SDS011;55322;48.146;11.516;2023-03-15T01:29:04;2.45;;;0.32;;
68377;SDS011;55322;48.146;11.516;2023-03-15T01:31:30;2.90;;;0.40;;
68377;SDS011;55322;48.146;11.516;2023-03-15T01:33:56;2.87;;;0.50;;
68377;SDS011;55322;48.146;11.516;2023-03-15T01:36:22;3.78;;;0.50;;
68377;SDS011;55322;48.146;11.516;2023-03-15T01:38:48;2.92;;;0.47;;
68377;SDS011;55322;48.146;11.516;2023-03-15T01:41:14;3.20;;;0.40;;
68377;SDS011;55322;48.146;11.516;2023-03-15T01:43:40;3.97;;;0.57;;
68377;SDS011;55322;48.146;11.516;2023-03-15T01:51:41;2.63;;;0.30;;
68377;SDS011;55322;48.146;11.516;2023-03-15T01:54:31;2.75;;;0.40;;
68377;SDS011;55322;48.146;11.516;2023-03-15T01:57:05;2.33;;;0.38;;
68377;SDS011;55322;48.146;11.516;2023-03-15T01:59:38;2.50;;;0.37;;
68377;SDS011;55322;48.146;11.516;2023-03-15T02:02:15;3.08;;;0.47;;
68377;SDS011;55322;48.146;11.516;2023-03-15T02:04:46;3.03;;;0.50;;
68377;SDS011;55322;48.146;11.516;2023-03-15T02:07:19;3.35;;;0.43;;
68377;SDS011;55322;48.146;11.516;2023-03-15T02:09:49;2.97;;;0.43;;
68377;SDS011;55322;48.146;11.516;2023-03-15T02:12:22;2.72;;;0.40;;
68377;SDS011;55322;48.146;11.516;2023-03-15T02:14:49;3.40;;;0.60;;
68377;SDS011;55322;48.146;11.516;2023-03-15T02:17:16;2.97;;;0.50;;
68377;SDS011;55322;48.146;11.516;2023-03-15T02:19:59;3.80;;;0.50;;
68377;SDS011;55322;48.146;11.516;2023-03-15T02:22:31;3.67;;;0.57;;
68377;SDS011;55322;48.146;11.516;2023-03-15T02:25:27;4.15;;;0.88;;
68377;SDS011;55322;48.146;11.516;2023-03-15T02:28:02;3.97;;;0.88;;
68377;SDS011;55322;48.146;11.516;2023-03-15T02:30:30;3.55;;;0.80;;
68377;SDS011;55322;48.146;11.516;2023-03-15T02:32:56;4.07;;;0.83;;
68377;SDS011;55322;48.146;11.516;2023-03-15T02:35:24;4.10;;;1.00;;
68377;SDS011;55322;48.146;11.516;2023-03-15T02:37:51;3.97;;;0.77;;
68377;SDS011;55322;48.146;11.516;2023-03-15T02:40:18;3.97;;;0.90;;
68377;SDS011;55322;48.146;11.516;2023-03-15T02:42:45;3.73;;;0.83;;
68377;SDS011;55322;48.146;11.516;2023-03-15T02:45:14;4.45;;;1.00;;
68377;SDS011;55322;48.146;11.516;2023-03-15T02:47:40;4.67;;;1.20;;
68377;SDS011;55322;48.146;11.516;2023-03-15T02:50:05;5.00;;;1.00;;
68377;SDS011;55322;48.146;11.516;2023-03-15T02:52:32;4.90;;;1.20;;
68377;SDS011;55322;48.146;11.516;2023-03-15T02:54:57;3.72;;;0.82;;
68377;SDS011;55322;48.146;11.516;2023-03-15T02:57:23;4.23;;;1.10;;
68377;SDS011;55322;48.146;11.516;2023-03-15T02:59:48;3.90;;;0.83;;
68377;SDS011;55322;48.146;11.516;2023-03-15T03:02:14;5.97;;;1.10;;
68377;SDS011;55322;48.146;11.516;2023-03-15T03:04:40;4.60;;;1.17;;
68377;SDS011;55322;48.146;11.516;2023-03-15T03:07:05;4.47;;;1.07;;
68377;SDS011;55322;48.146;11.516;2023-03-15T03:09:31;4.55;;;1.23;;
68377;SDS011;55322;48.146;11.516;2023-03-15T03:11:56;4.17;;;1.07;;
68377;SDS011;55322;48.146;11.516;2023-03-15T03:14:22;4.63;;;1.30;;
68377;SDS011;55322;48.146;11.516;2023-03-15T03:16:48;5.80;;;1.45;;
68377;SDS011;55322;48.146;11.516;2023-03-15T03:19:13;5.70;;;1.30;;
68377;SDS011;55322;48.146;11.516;2023-03-15T03:21:39;5.47;;;1.20;;
68377;SDS011;55322;48.146;11.516;2023-03-15T03:24:07;6.00;;;1.50;;
68377;SDS011;55322;48.146;11.516;2023-03-15T03:26:33;5.07;;;1.35;;
68377;SDS011;55322;48.146;11.516;2023-03-15T03:28:58;5.03;;;1.20;;
68377;SDS011;55322;48.146;11.516;2023-03-15T03:31:26;5.95;;;1.30;;
68377;SDS011;55322;48.146;11.516;2023-03-15T03:33:52;5.47;;;1.40;;
68377;SDS011;55322;48.146;11.516;2023-03-15T03:36:19;5.50;;;1.30;;
68377;SDS011;55322;48.146;11.516;2023-03-15T03:38:45;4.43;;;0.90;;
68377;SDS011;55322;48.146;11.516;2023-03-15T03:41:11;5.63;;;1.23;;
68377;SDS011;55322;48.146;11.516;2023-03-15T03:43:38;7.25;;;1.42;;
68377;SDS011;55322;48.146;11.516;2023-03-15T03:46:04;6.63;;;1.20;;
68377;SDS011;55322;48.146;11.516;2023-03-15T03:48:30;5.38;;;1.40;;
68377;SDS011;55322;48.146;11.516;2023-03-15T03:50:56;4.87;;;1.33;;
68377;SDS011;55322;48.146;11.516;2023-03-15T03:53:21;5.68;;;1.30;;
68377;SDS011;55322;48.146;11.516;2023-03-15T03:55:47;6.17;;;1.63;;
68377;SDS011;55322;48.146;11.516;2023-03-15T03:58:12;5.53;;;1.37;;
68377;SDS011;55322;48.146;11.516;2023-03-15T04:00:38;6.37;;;1.50;;
68377;SDS011;55322;48.146;11.516;2023-03-15T04:03:03;7.53;;;1.60;;
68377;SDS011;55322;48.146;11.516;2023-03-15T04:05:29;5.23;;;1.40;;
68377;SDS011;55322;48.146;11.516;2023-03-15T04:07:55;5.70;;;1.23;;
68377;SDS011;55322;48.146;11.516;2023-03-15T04:10:21;4.93;;;1.17;;
68377;SDS011;55322;48.146;11.516;2023-03-15T04:12:52;7.53;;;1.63;;
68377;SDS011;55322;48.146;11.516;2023-03-15T04:15:18;6.10;;;1.70;;
68377;SDS011;55322;48.146;11.516;2023-03-15T04:17:46;5.35;;;1.35;;
68377;SDS011;55322;48.146;11.516;2023-03-15T04:20:20;6.20;;;1.95;;
68377;SDS011;55322;48.146;11.516;2023-03-15T04:22:46;6.05;;;1.48;;
68377;SDS011;55322;48.146;11.516;2023-03-15T04:25:14;5.13;;;1.50;;
68377;SDS011;55322;48.146;11.516;2023-03-15T04:27:40;6.18;;;1.50;;
68377;SDS011;55322;48.146;11.516;2023-03-15T04:30:05;7.17;;;1.80;;
68377;SDS011;55322;48.146;11.516;2023-03-15T04:32:32;6.32;;;1.42;;
68377;SDS011;55322;48.146;11.516;2023-03-15T04:34:57;5.63;;;1.40;;
68377;SDS011;55322;48.146;11.516;2023-03-15T04:37:22;7.27;;;2.03;;
68377;SDS011;55322;48.146;11.516;2023-03-15T04:39:48;5.57;;;1.40;;
68377;SDS011;55322;48.146;11.516;2023-03-15T04:42:13;7.00;;;1.70;;
68377;SDS011;55322;48.146;11.516;2023-03-15T04:44:38;6.43;;;1.63;;
68377;SDS011;55322;48.146;11.516;2023-03-15T04:47:04;4.63;;;1.20;;
68377;SDS011;55322;48.146;11.516;2023-03-15T04:49:29;8.32;;;2.03;;
68377;SDS011;55322;48.146;11.516;2023-03-15T04:51:55;6.40;;;1.87;;
68377;SDS011;55322;48.146;11.516;2023-03-15T04:54:20;6.17;;;1.60;;
68377;SDS011;55322;48.146;11.516;2023-03-15T04:56:47;6.15;;;1.60;;
68377;SDS011;55322;48.146;11.516;2023-03-15T04:59:12;8.43;;;1.93;;
68377;SDS011;55322;48.146;11.516;2023-03-15T05:01:37;6.28;;;1.60;;
68377;SDS011;55322;48.146;11.516;2023-03-15T05:04:03;10.43;;;1.67;;
68377;SDS011;55322;48.146;11.516;2023-03-15T05:06:28;5.57;;;1.53;;
68377;SDS011;55322;48.146;11.516;2023-03-15T05:08:54;7.33;;;1.50;;
68377;SDS011;55322;48.146;11.516;2023-03-15T05:11:20;5.93;;;1.20;;
68377;SDS011;55322;48.146;11.516;2023-03-15T05:13:45;7.37;;;1.40;;
68377;SDS011;55322;48.146;11.516;2023-03-15T05:16:10;6.63;;;1.50;;
68377;SDS011;55322;48.146;11.516;2023-03-15T05:18:36;5.68;;;1.35;;
68377;SDS011;55322;48.146;11.516;2023-03-15T05:21:01;8.10;;;1.40;;
68377;SDS011;55322;48.146;11.516;2023-03-15T05:23:30;5.93;;;1.23;;
68377;SDS011;55322;48.146;11.516;2023-03-15T05:25:56;7.17;;;1.17;;
68377;SDS011;55322;48.146;11.516;2023-03-15T05:28:22;6.82;;;1.50;;
68377;SDS011;55322;48.146;11.516;2023-03-15T05:30:48;5.68;;;1.33;;
68377;SDS011;55322;48.146;11.516;2023-03-15T05:33:16;7.20;;;1.60;;
68377;SDS011;55322;48.146;11.516;2023-03-15T05:35:41;6.15;;;1.35;;
68377;SDS011;55322;48.146;11.516;2023-03-15T05:38:07;7.07;;;1.40;;
68377;SDS011;55322;48.146;11.516;2023-03-15T05:40:33;9.20;;;1.73;;
68377;SDS011;55322;48.146;11.516;2023-03-15T05:42:58;7.85;;;1.50;;
68377;SDS011;55322;48.146;11.516;2023-03-15T05:45:23;7.53;;;1.70;;
68377;SDS011;55322;48.146;11.516;2023-03-15T05:47:49;7.73;;;1.83;;
68377;SDS011;55322;48.146;11.516;2023-03-15T05:50:15;9.73;;;1.73;;
68377;SDS011;55322;48.146;11.516;2023-03-15T05:52:40;9.65;;;1.85;;
68377;SDS011;55322;48.146;11.516;2023-03-15T05:55:06;7.70;;;1.60;;
68377;SDS011;55322;48.146;11.516;2023-03-15T05:57:31;5.85;;;1.67;;
68377;SDS011;55322;48.146;11.516;2023-03-15T05:59:57;7.22;;;1.80;;
68377;SDS011;55322;48.146;11.516;2023-03-15T06:02:22;10.47;;;1.93;;
68377;SDS011;55322;48.146;11.516;2023-03-15T06:04:47;8.40;;;2.00;;
68377;SDS011;55322;48.146;11.516;2023-03-15T06:07:13;6.83;;;1.60;;
68377;SDS011;55322;48.146;11.516;2023-03-15T06:09:38;8.97;;;2.07;;
68377;SDS011;55322;48.146;11.516;2023-03-15T06:12:03;6.23;;;1.87;;
68377;SDS011;55322;48.146;11.516;2023-03-15T06:14:29;10.05;;;1.75;;
68377;SDS011;55322;48.146;11.516;2023-03-15T06:16:54;11.40;;;2.10;;
68377;SDS011;55322;48.146;11.516;2023-03-15T06:19:20;7.27;;;1.87;;
68377;SDS011;55322;48.146;11.516;2023-03-15T06:21:46;7.13;;;1.80;;
68377;SDS011;55322;48.146;11.516;2023-03-15T06:24:12;7.17;;;1.73;;
68377;SDS011;55322;48.146;11.516;2023-03-15T06:26:37;8.38;;;1.88;;
68377;SDS011;55322;48.146;11.516;2023-03-15T06:29:02;7.27;;;2.10;;
68377;SDS011;55322;48.146;11.516;2023-03-15T06:31:28;9.23;;;2.37;;
68377;SDS011;55322;48.146;11.516;2023-03-15T06:33:53;7.00;;;2.10;;
68377;SDS011;55322;48.146;11.516;2023-03-15T06:36:18;9.80;;;2.40;;
68377;SDS011;55322;48.146;11.516;2023-03-15T06:38:44;7.23;;;2.07;;
68377;SDS011;55322;48.146;11.516;2023-03-15T06:41:09;9.17;;;2.40;;
68377;SDS011;55322;48.146;11.516;2023-03-15T06:43:36;7.20;;;2.17;;
68377;SDS011;55322;48.146;11.516;2023-03-15T06:46:02;9.55;;;2.70;;
68377;SDS011;55322;48.146;11.516;2023-03-15T06:48:27;10.70;;;2.77;;
68377;SDS011;55322;48.146;11.516;2023-03-15T06:50:53;8.40;;;2.83;;
68377;SDS011;55322;48.146;11.516;2023-03-15T06:53:19;9.98;;;2.88;;
68377;SDS011;55322;48.146;11.516;2023-03-15T06:55:45;8.27;;;2.75;;
68377;SDS011;55322;48.146;11.516;2023-03-15T06:58:11;7.07;;;2.55;;
68377;SDS011;55322;48.146;11.516;2023-03-15T07:00:37;9.27;;;3.05;;
68377;SDS011;55322;48.146;11.516;2023-03-15T07:03:02;9.73;;;3.43;;
68377;SDS011;55322;48.146;11.516;2023-03-15T07:05:27;9.40;;;3.50;;
68377;SDS011;55322;48.146;11.516;2023-03-15T07:07:53;9.95;;;3.15;;
68377;SDS011;55322;48.146;11.516;2023-03-15T07:10:18;10.63;;;3.27;;
68377;SDS011;55322;48.146;11.516;2023-03-15T07:12:44;9.07;;;3.30;;
68377;SDS011;55322;48.146;11.516;2023-03-15T07:15:10;11.10;;;3.70;;
68377;SDS011;55322;48.146;11.516;2023-03-15T07:17:36;8.27;;;3.25;;
68377;SDS011;55322;48.146;11.516;2023-03-15T07:20:01;9.07;;;3.47;;
68377;SDS011;55322;48.146;11.516;2023-03-15T07:22:26;11.70;;;3.97;;
68377;SDS011;55322;48.146;11.516;2023-03-15T07:24:52;8.98;;;3.55;;
68377;SDS011;55322;48.146;11.516;2023-03-15T07:27:17;10.23;;;3.47;;
68377;SDS011;55322;48.146;11.516;2023-03-15T07:29:42;9.63;;;3.37;;
68377;SDS011;55322;48.146;11.516;2023-03-15T07:32:08;8.13;;;3.33;;
68377;SDS011;55322;48.146;11.516;2023-03-15T07:34:33;9.93;;;3.90;;
68377;SDS011;55322;48.146;11.516;2023-03-15T07:36:58;12.33;;;4.30;;
68377;SDS011;55322;48.146;11.516;2023-03-15T07:39:24;11.03;;;4.57;;
68377;SDS011;55322;48.146;11.516;2023-03-15T07:41:51;10.87;;;4.20;;
68377;SDS011;55322;48.146;11.516;2023-03-15T07:44:17;11.75;;;4.55;;
68377;SDS011;55322;48.146;11.516;2023-03-15T07:46:42;11.98;;;4.45;;
68377;SDS011;55322;48.146;11.516;2023-03-15T07:49:08;9.50;;;4.47;;
68377;SDS011;55322;48.146;11.516;2023-03-15T07:51:33;11.60;;;4.40;;
68377;SDS011;55322;48.146;11.516;2023-03-15T07:53:58;10.43;;;4.57;;
68377;SDS011;55322;48.146;11.516;2023-03-15T07:56:24;9.27;;;4.23;;
68377;SDS011;55322;48.146;11.516;2023-03-15T07:58:49;11.13;;;4.27;;
68377;SDS011;55322;48.146;11.516;2023-03-15T08:01:15;8.23;;;4.10;;
68377;SDS011;55322;48.146;11.516;2023-03-15T08:03:40;12.97;;;4.00;;
68377;SDS011;55322;48.146;11.516;2023-03-15T08:06:05;10.20;;;3.60;;
68377;SDS011;55322;48.146;11.516;2023-03-15T08:08:31;11.20;;;3.88;;
68377;SDS011;55322;48.146;11.516;2023-03-15T08:10:57;10.63;;;3.50;;
68377;SDS011;55322;48.146;11.516;2023-03-15T08:13:23;9.98;;;3.80;;
68377;SDS011;55322;48.146;11.516;2023-03-15T08:15:48;13.17;;;3.97;;
68377;SDS011;55322;48.146;11.516;2023-03-15T08:18:14;10.80;;;3.53;;
68377;SDS011;55322;48.146;11.516;2023-03-15T08:20:39;8.80;;;3.37;;
68377;SDS011;55322;48.146;11.516;2023-03-15T08:23:04;9.37;;;3.97;;
68377;SDS011;55322;48.146;11.516;2023-03-15T08:25:30;10.57;;;3.75;;
68377;SDS011;55322;48.146;11.516;2023-03-15T08:27:55;12.67;;;3.80;;
68377;SDS011;55322;48.146;11.516;2023-03-15T08:30:21;10.73;;;3.40;;
68377;SDS011;55322;48.146;11.516;2023-03-15T08:32:47;10.45;;;3.50;;
68377;SDS011;55322;48.146;11.516;2023-03-15T08:35:14;9.13;;;3.30;;
68377;SDS011;55322;48.146;11.516;2023-03-15T08:37:40;9.70;;;3.63;;
68377;SDS011;55322;48.146;11.516;2023-03-15T08:40:06;11.27;;;3.50;;
68377;SDS011;55322;48.146;11.516;2023-03-15T08:42:34;9.93;;;3.27;;
68377;SDS011;55322;48.146;11.516;2023-03-15T08:45:01;9.82;;;3.45;;
68377;SDS011;55322;48.146;11.516;2023-03-15T08:47:27;7.10;;;3.20;;
68377;SDS011;55322;48.146;11.516;2023-03-15T08:49:52;9.00;;;3.03;;
68377;SDS011;55322;48.146;11.516;2023-03-15T08:52:18;8.73;;;3.00;;
68377;SDS011;55322;48.146;11.516;2023-03-15T08:54:44;8.32;;;3.10;;
68377;SDS011;55322;48.146;11.516;2023-03-15T08:57:09;9.93;;;3.00;;
68377;SDS011;55322;48.146;11.516;2023-03-15T08:59:36;8.73;;;2.70;;
68377;SDS011;55322;48.146;11.516;2023-03-15T09:02:02;8.73;;;2.70;;
68377;SDS011;55322;48.146;11.516;2023-03-15T09:04:27;8.85;;;2.58;;
68377;SDS011;55322;48.146;11.516;2023-03-15T09:06:53;8.50;;;2.60;;
68377;SDS011;55322;48.146;11.516;2023-03-15T09:09:18;6.60;;;2.20;;
68377;SDS011;55322;48.146;11.516;2023-03-15T09:11:43;8.67;;;2.13;;
68377;SDS011;55322;48.146;11.516;2023-03-15T09:14:08;8.37;;;2.47;;
68377;SDS011;55322;48.146;11.516;2023-03-15T09:16:34;8.20;;;2.50;;
68377;SDS011;55322;48.146;11.516;2023-03-15T09:18:59;8.60;;;2.50;;
68377;SDS011;55322;48.146;11.516;2023-03-15T09:21:24;6.73;;;2.27;;
68377;SDS011;55322;48.146;11.516;2023-03-15T09:23:51;8.80;;;2.80;;
68377;SDS011;55322;48.146;11.516;2023-03-15T09:26:17;9.50;;;2.50;;
68377;SDS011;55322;48.146;11.516;2023-03-15T09:28:42;8.17;;;2.40;;
68377;SDS011;55322;48.146;11.516;2023-03-15T09:31:07;9.17;;;2.70;;
68377;SDS011;55322;48.146;11.516;2023-03-15T09:33:33;8.77;;;2.50;;
68377;SDS011;55322;48.146;11.516;2023-03-15T09:35:58;7.13;;;2.20;;
68377;SDS011;55322;48.146;11.516;2023-03-15T09:38:24;8.40;;;2.17;;
68377;SDS011;55322;48.146;11.516;2023-03-15T09:40:50;9.50;;;2.63;;
68377;SDS011;55322;48.146;11.516;2023-03-15T09:43:38;7.40;;;2.33;;
68377;SDS011;55322;48.146;11.516;2023-03-15T09:48:55;8.05;;;2.50;;
68377;SDS011;55322;48.146;11.516;2023-03-15T09:51:38;9.35;;;2.50;;
68377;SDS011;55322;48.146;11.516;2023-03-15T09:54:15;8.90;;;2.50;;
68377;SDS011;55322;48.146;11.516;2023-03-15T09:57:03;7.53;;;2.20;;
68377;SDS011;55322;48.146;11.516;2023-03-15T09:59:35;7.05;;;2.42;;
68377;SDS011;55322;48.146;11.516;2023-03-15T10:02:12;6.93;;;2.28;;
68377;SDS011;55322;48.146;11.516;2023-03-15T10:04:43;7.50;;;2.13;;
68377;SDS011;55322;48.146;11.516;2023-03-15T10:07:11;7.30;;;2.10;;
68377;SDS011;55322;48.146;11.516;2023-03-15T10:09:39;8.73;;;1.73;;
68377;SDS011;55322;48.146;11.516;2023-03-15T10:12:09;8.37;;;2.23;;
68377;SDS011;55322;48.146;11.516;2023-03-15T10:15:38;9.45;;;2.15;;
68377;SDS011;55322;48.146;11.516;2023-03-15T10:20:25;6.22;;;1.90;;
68377;SDS011;55322;48.146;11.516;2023-03-15T10:25:24;6.03;;;1.40;;
68377;SDS011;55322;48.146;11.516;2023-03-15T10:27:56;6.67;;;1.60;;
68377;SDS011;55322;48.146;11.516;2023-03-15T10:30:29;7.88;;;1.85;;
68377;SDS011;55322;48.146;11.516;2023-03-15T10:33:04;6.25;;;1.70;;
68377;SDS011;55322;48.146;11.516;2023-03-15T10:35:38;7.30;;;1.27;;
68377;SDS011;55322;48.146;11.516;2023-03-15T10:38:13;6.43;;;1.40;;
68377;SDS011;55322;48.146;11.516;2023-03-15T10:48:51;7.60;;;1.30;;
68377;SDS011;55322;48.146;11.516;2023-03-15T10:51:26;6.25;;;1.27;;
68377;SDS011;55322;48.146;11.516;2023-03-15T10:54:15;9.35;;;1.50;;
68377;SDS011;55322;48.146;11.516;2023-03-15T10:56:44;7.70;;;1.20;;
68377;SDS011;55322;48.146;11.516;2023-03-15T10:59:17;5.30;;;1.10;;
68377;SDS011;55322;48.146;11.516;2023-03-15T11:01:47;6.13;;;1.10;;
68377;SDS011;55322;48.146;11.516;2023-03-15T11:04:23;5.13;;;0.85;;
68377;SDS011;55322;48.146;11.516;2023-03-15T11:09:23;5.78;;;1.52;;
68377;SDS011;55322;48.146;11.516;2023-03-15T11:16:59;6.50;;;0.95;;
68377;SDS011;55322;48.146;11.516;2023-03-15T11:19:26;7.38;;;0.98;;
68377;SDS011;55322;48.146;11.516;2023-03-15T11:21:55;5.30;;;0.90;;
68377;SDS011;55322;48.146;11.516;2023-03-15T11:24:24;5.53;;;0.90;;
68377;SDS011;55322;48.146;11.516;2023-03-15T11:26:55;5.70;;;0.80;;
68377;SDS011;55322;48.146;11.516;2023-03-15T11:29:35;4.10;;;0.50;;
68377;SDS011;55322;48.146;11.516;2023-03-15T11:37:39;3.58;;;0.65;;
68377;SDS011;55322;48.146;11.516;2023-03-15T11:50:55;4.82;;;0.65;;
68377;SDS011;55322;48.146;11.516;2023-03-15T11:53:22;6.53;;;0.57;;
68377;SDS011;55322;48.146;11.516;2023-03-15T11:55:51;5.35;;;0.50;;
68377;SDS011;55322;48.146;11.516;2023-03-15T11:58:27;4.88;;;0.60;;
68377;SDS011;55322;48.146;11.516;2023-03-15T12:01:00;4.25;;;0.60;;
68377;SDS011;55322;48.146;11.516;2023-03-15T12:03:31;4.80;;;0.60;;
68377;SDS011;55322;48.146;11.516;2023-03-15T12:08:41;3.50;;;0.40;;
68377;SDS011;55322;48.146;11.516;2023-03-15T12:11:35;4.57;;;0.50;;
68377;SDS011;55322;48.146;11.516;2023-03-15T12:16:24;4.60;;;0.60;;
68377;SDS011;55322;48.146;11.516;2023-03-15T12:18:52;4.03;;;0.50;;
68377;SDS011;55322;48.146;11.516;2023-03-15T12:21:21;5.00;;;0.50;;
68377;SDS011;55322;48.146;11.516;2023-03-15T12:23:59;3.78;;;0.40;;
68377;SDS011;55322;48.146;11.516;2023-03-15T12:26:39;4.80;;;0.43;;
68377;SDS011;55322;48.146;11.516;2023-03-15T12:29:14;3.33;;;0.47;;
68377;SDS011;55322;48.146;11.516;2023-03-15T12:34:29;3.93;;;0.50;;
68377;SDS011;55322;48.146;11.516;2023-03-15T12:36:56;4.93;;;0.50;;
68377;SDS011;55322;48.146;11.516;2023-03-15T12:44:54;3.80;;;0.47;;
68377;SDS011;55322;48.146;11.516;2023-03-15T12:56:46;4.85;;;0.65;;
68377;SDS011;55322;48.146;11.516;2023-03-15T12:59:09;6.93;;;0.52;;
68377;SDS011;55322;48.146;11.516;2023-03-15T13:01:39;3.73;;;0.57;;
68377;SDS011;55322;48.146;11.516;2023-03-15T13:04:07;4.13;;;0.40;;
68377;SDS011;55322;48.146;11.516;2023-03-15T13:20:17;4.20;;;0.50;;
68377;SDS011;55322;48.146;11.516;2023-03-15T13:25:41;3.85;;;0.50;;
68377;SDS011;55322;48.146;11.516;2023-03-15T13:28:33;3.53;;;0.40;;
68377;SDS011;55322;48.146;11.516;2023-03-15T13:33:49;3.92;;;0.47;;
68377;SDS011;55322;48.146;11.516;2023-03-15T13:36:25;4.10;;;0.40;;
68377;SDS011;55322;48.146;11.516;2023-03-15T13:38:53;3.17;;;0.50;;
68377;SDS011;55322;48.146;11.516;2023-03-15T13:43:52;4.20;;;0.50;;
68377;SDS011;55322;48.146;11.516;2023-03-15T13:46:21;5.43;;;0.70;;
68377;SDS011;55322;48.146;11.516;2023-03-15T13:48:47;2.75;;;0.43;;
68377;SDS011;55322;48.146;11.516;2023-03-15T13:51:19;3.90;;;0.40;;
68377;SDS011;55322;48.146;11.516;2023-03-15T13:53:49;3.03;;;0.40;;
68377;SDS011;55322;48.146;11.516;2023-03-15T13:56:18;4.90;;;0.50;;
68377;SDS011;55322;48.146;11.516;2023-03-15T13:58:50;4.25;;;0.52;;
68377;SDS011;55322;48.146;11.516;2023-03-15T14:01:16;3.53;;;0.50;;
68377;SDS011;55322;48.146;11.516;2023-03-15T14:03:42;3.75;;;0.60;;
68377;SDS011;55322;48.146;11.516;2023-03-15T14:06:18;3.65;;;0.47;;
68377;SDS011;55322;48.146;11.516;2023-03-15T14:08:46;3.53;;;0.47;;
68377;SDS011;55322;48.146;11.516;2023-03-15T14:11:17;3.67;;;0.47;;
68377;SDS011;55322;48.146;11.516;2023-03-15T14:13:55;4.53;;;0.50;;
68377;SDS011;55322;48.146;11.516;2023-03-15T14:16:30;4.57;;;0.70;;
68377;SDS011;55322;48.146;11.516;2023-03-15T14:21:43;4.38;;;0.55;;
68377;SDS011;55322;48.146;11.516;2023-03-15T14:24:58;3.93;;;0.50;;
68377;SDS011;55322;48.146;11.516;2023-03-15T14:29:33;3.35;;;0.40;;
68377;SDS011;55322;48.146;11.516;2023-03-15T14:32:08;3.40;;;0.50;;
68377;SDS011;55322;48.146;11.516;2023-03-15T14:40:11;4.95;;;0.40;;
68377;SDS011;55322;48.146;11.516;2023-03-15T14:42:43;4.30;;;0.60;;
68377;SDS011;55322;48.146;11.516;2023-03-15T14:45:09;3.42;;;0.40;;
68377;SDS011;55322;48.146;11.516;2023-03-15T14:47:36;3.77;;;0.50;;
68377;SDS011;55322;48.146;11.516;2023-03-15T14:50:11;3.53;;;0.50;;
68377;SDS011;55322;48.146;11.516;2023-03-15T14:52:38;4.20;;;0.40;;
68377;SDS011;55322;48.146;11.516;2023-03-15T14:55:07;3.10;;;0.50;;
68377;SDS011;55322;48.146;11.516;2023-03-15T14:57:36;3.83;;;0.50;;
68377;SDS011;55322;48.146;11.516;2023-03-15T15:00:01;5.63;;;0.50;;
68377;SDS011;55322;48.146;11.516;2023-03-15T15:02:28;3.55;;;0.50;;
68377;SDS011;55322;48.146;11.516;2023-03-15T15:04:53;3.53;;;0.70;;
68377;SDS011;55322;48.146;11.516;2023-03-15T15:07:19;3.93;;;0.60;;
68377;SDS011;55322;48.146;11.516;2023-03-15T15:09:48;3.47;;;0.40;;
68377;SDS011;55322;48.146;11.516;2023-03-15T15:12:14;2.95;;;0.47;;
68377;SDS011;55322;48.146;11.516;2023-03-15T15:14:40;3.73;;;0.50;;
68377;SDS011;55322;48.146;11.516;2023-03-15T15:17:06;3.95;;;0.60;;
68377;SDS011;55322;48.146;11.516;2023-03-15T15:19:32;5.40;;;0.70;;
68377;SDS011;55322;48.146;11.516;2023-03-15T15:21:57;4.03;;;0.40;;
68377;SDS011;55322;48.146;11.516;2023-03-15T15:24:24;4.43;;;0.50;;
68377;SDS011;55322;48.146;11.516;2023-03-15T15:26:50;4.18;;;0.50;;
68377;SDS011;55322;48.146;11.516;2023-03-15T15:29:16;3.30;;;0.50;;
68377;SDS011;55322;48.146;11.516;2023-03-15T15:31:41;5.30;;;0.60;;
68377;SDS011;55322;48.146;11.516;2023-03-15T15:34:08;5.05;;;0.52;;
68377;SDS011;55322;48.146;11.516;2023-03-15T15:36:35;3.42;;;0.50;;
68377;SDS011;55322;48.146;11.516;2023-03-15T15:39:37;2.70;;;0.40;;
68377;SDS011;55322;48.146;11.516;2023-03-15T15:41:55;2.90;;;0.50;;
68377;SDS011;55322;48.146;11.516;2023-03-15T15:44:21;4.38;;;0.40;;
68377;SDS011;55322;48.146;11.516;2023-03-15T15:46:49;4.03;;;0.50;;
68377;SDS011;55322;48.146;11.516;2023-03-15T15:49:15;4.70;;;0.53;;
68377;SDS011;55322;48.146;11.516;2023-03-15T15:51:41;4.78;;;0.52;;
68377;SDS011;55322;48.146;11.516;2023-03-15T15:54:46;3.67;;;0.60;;
68377;SDS011;55322;48.146;11.516;2023-03-15T15:57:04;6.30;;;0.70;;
68377;SDS011;55322;48.146;11.516;2023-03-15T15:59:30;4.35;;;0.68;;
68377;SDS011;55322;48.146;11.516;2023-03-15T16:01:55;3.37;;;0.40;;
68377;SDS011;55322;48.146;11.516;2023-03-15T16:04:21;5.53;;;0.57;;
68377;SDS011;55322;48.146;11.516;2023-03-15T16:06:51;3.40;;;0.50;;
68377;SDS011;55322;48.146;11.516;2023-03-15T16:09:19;7.70;;;0.55;;
68377;SDS011;55322;48.146;11.516;2023-03-15T16:11:46;6.10;;;0.90;;
68377;SDS011;55322;48.146;11.516;2023-03-15T16:14:12;4.10;;;0.70;;
68377;SDS011;55322;48.146;11.516;2023-03-15T16:16:39;7.35;;;0.80;;
68377;SDS011;55322;48.146;11.516;2023-03-15T16:19:05;5.70;;;0.80;;